createdAt,value
2023-05-13T00:01:14.830Z,9.33
2023-05-13T00:03:42.555Z,9.87
2023-05-13T00:06:09.744Z,9.47
2023-05-13T00:08:37.314Z,9.57
2023-05-13T00:11:04.281Z,10.43
2023-05-13T00:13:31.402Z,9.30
2023-05-13T00:15:58.556Z,10.03
2023-05-13T00:18:26.299Z,11.00
2023-05-13T00:20:53.312Z,10.23
2023-05-13T00:23:20.332Z,10.17
2023-05-13T00:25:47.478Z,10.30
2023-05-13T00:28:15.294Z,10.73
2023-05-13T00:30:45.983Z,9.77
2023-05-13T00:33:13.232Z,11.07
2023-05-13T00:35:40.104Z,10.10
2023-05-13T00:38:07.708Z,10.83
2023-05-13T00:40:39.668Z,11.17
2023-05-13T00:43:07.151Z,11.17
2023-05-13T00:45:34.102Z,10.67
2023-05-13T00:48:01.401Z,11.77
2023-05-13T00:50:28.545Z,11.57
2023-05-13T00:52:58.759Z,11.83
2023-05-13T00:55:27.006Z,11.77
2023-05-13T00:57:53.848Z,11.70
2023-05-13T01:00:21.272Z,11.97
2023-05-13T01:02:55.389Z,12.73
2023-05-13T01:05:40.795Z,12.23
2023-05-13T01:08:32.849Z,12.93
2023-05-13T01:11:05.073Z,12.60
2023-05-13T01:13:38.559Z,12.43
2023-05-13T01:16:40.403Z,12.53
2023-05-13T01:19:30.629Z,12.70
2023-05-13T01:21:57.536Z,12.20
2023-05-13T01:24:24.801Z,12.53
2023-05-13T01:26:51.833Z,12.70
2023-05-13T01:29:18.838Z,12.27
2023-05-13T01:31:46.975Z,13.03
2023-05-13T01:34:16.281Z,13.10
2023-05-13T01:36:44.157Z,13.47
2023-05-13T01:39:12.413Z,13.70
2023-05-13T01:41:39.254Z,13.63
2023-05-13T01:44:06.681Z,13.67
2023-05-13T01:46:33.789Z,13.23
2023-05-13T01:49:00.664Z,13.47
2023-05-13T01:51:27.703Z,13.80
2023-05-13T01:53:54.574Z,13.73
2023-05-13T01:56:22.551Z,12.83
2023-05-13T01:58:49.404Z,13.93
2023-05-13T02:01:16.353Z,13.33
2023-05-13T02:03:43.499Z,14.40
2023-05-13T02:06:10.885Z,13.30
2023-05-13T02:08:38.026Z,14.80
2023-05-13T02:11:05.003Z,13.83
2023-05-13T02:13:32.046Z,15.03
2023-05-13T02:15:58.907Z,14.20
2023-05-13T02:18:25.956Z,13.17
2023-05-13T02:20:52.735Z,13.90
2023-05-13T02:23:19.738Z,14.20
2023-05-13T02:25:46.810Z,14.43
2023-05-13T02:28:13.639Z,14.10
2023-05-13T02:30:40.456Z,13.93
2023-05-13T02:33:07.563Z,13.73
2023-05-13T02:35:34.695Z,13.13
2023-05-13T02:38:04.061Z,13.50
2023-05-13T02:40:30.887Z,13.77
2023-05-13T02:42:57.834Z,14.00
2023-05-13T02:45:24.798Z,14.60
2023-05-13T02:47:54.311Z,14.17
2023-05-13T02:50:22.041Z,13.93
2023-05-13T02:52:49.232Z,12.83
2023-05-13T02:55:16.281Z,13.60
2023-05-13T02:57:43.788Z,14.20
2023-05-13T03:00:11.487Z,13.67
2023-05-13T03:02:38.424Z,14.33
2023-05-13T03:05:05.864Z,14.27
2023-05-13T03:07:32.653Z,14.67
2023-05-13T03:09:59.436Z,15.03
2023-05-13T03:12:26.247Z,13.73
2023-05-13T03:14:53.081Z,14.83
2023-05-13T03:17:20.254Z,15.53
2023-05-13T03:19:47.132Z,15.60
2023-05-13T03:22:13.916Z,15.23
2023-05-13T03:24:41.829Z,16.03
2023-05-13T03:27:08.769Z,15.30
2023-05-13T03:29:35.452Z,15.60
2023-05-13T03:32:02.423Z,15.07
2023-05-13T03:34:29.125Z,15.53
2023-05-13T03:36:55.900Z,15.57
2023-05-13T03:39:22.699Z,15.77
2023-05-13T03:41:49.592Z,15.17
2023-05-13T03:44:16.527Z,15.83
2023-05-13T03:46:43.800Z,15.00
2023-05-13T03:49:10.804Z,15.83
2023-05-13T03:51:37.585Z,16.03
2023-05-13T03:54:04.294Z,15.47
2023-05-13T03:56:31.145Z,15.33
2023-05-13T03:58:58.037Z,14.27
2023-05-13T04:01:24.942Z,15.13
2023-05-13T04:03:52.650Z,14.67
2023-05-13T04:06:19.505Z,15.37
2023-05-13T04:08:47.132Z,13.47
2023-05-13T04:11:13.932Z,14.60
2023-05-13T04:13:40.948Z,14.13
2023-05-13T04:16:08.013Z,14.50
2023-05-13T04:18:34.885Z,14.07
2023-05-13T04:21:06.652Z,14.97
2023-05-13T04:23:33.617Z,13.27
2023-05-13T04:26:00.621Z,13.30
2023-05-13T04:28:29.845Z,12.20
2023-05-13T04:30:56.907Z,11.13
2023-05-13T04:33:23.947Z,9.30
2023-05-13T04:35:50.740Z,8.30
2023-05-13T04:38:17.635Z,8.17
2023-05-13T04:40:45.281Z,8.13
2023-05-13T04:43:12.415Z,7.30
2023-05-13T04:45:40.194Z,6.70
2023-05-13T04:48:07.215Z,6.97
2023-05-13T04:50:34.045Z,6.30
2023-05-13T04:53:01.461Z,5.90
2023-05-13T04:55:28.375Z,6.53
2023-05-13T04:57:55.647Z,6.00
2023-05-13T05:00:22.960Z,6.40
2023-05-13T05:02:49.876Z,6.63
2023-05-13T05:05:18.360Z,5.53
2023-05-13T05:07:45.836Z,6.03
2023-05-13T05:10:12.832Z,6.20
2023-05-13T05:12:40.188Z,5.80
2023-05-13T05:15:11.538Z,5.60
2023-05-13T05:17:42.174Z,5.67
2023-05-13T05:20:09.998Z,5.77
2023-05-13T05:22:42.380Z,6.17
2023-05-13T05:25:10.258Z,6.97
2023-05-13T05:27:37.322Z,5.70
2023-05-13T05:30:04.977Z,5.80
2023-05-13T05:32:31.863Z,5.70
2023-05-13T05:34:58.926Z,5.80
2023-05-13T05:37:25.857Z,6.30
2023-05-13T05:39:52.759Z,5.83
2023-05-13T05:42:19.654Z,5.97
2023-05-13T05:44:47.831Z,5.63
2023-05-13T05:47:14.985Z,6.00
2023-05-13T05:49:41.943Z,6.10
2023-05-13T05:52:11.395Z,5.70
2023-05-13T05:54:38.289Z,6.37
2023-05-13T05:57:05.301Z,5.80
2023-05-13T05:59:32.144Z,5.77
2023-05-13T06:01:59.218Z,5.10
2023-05-13T06:04:26.430Z,5.13
2023-05-13T06:06:53.418Z,5.57
2023-05-13T06:09:20.391Z,5.30
2023-05-13T06:11:49.053Z,5.50
2023-05-13T06:14:17.679Z,12.17
2023-05-13T06:16:44.829Z,5.90
2023-05-13T06:19:11.977Z,5.30
2023-05-13T06:21:38.853Z,4.70
2023-05-13T06:24:05.902Z,4.90
2023-05-13T06:26:32.889Z,4.83
2023-05-13T06:28:59.860Z,4.80
2023-05-13T06:31:27.368Z,4.70
2023-05-13T06:33:54.469Z,4.63
2023-05-13T06:36:21.752Z,4.13
2023-05-13T06:38:48.682Z,4.50
2023-05-13T06:41:15.897Z,4.30
2023-05-13T06:43:45.884Z,4.50
2023-05-13T06:46:13.157Z,4.53
2023-05-13T06:48:40.287Z,4.60
2023-05-13T06:51:07.345Z,4.00
2023-05-13T06:53:34.396Z,4.33
2023-05-13T06:56:01.472Z,4.73
2023-05-13T06:58:28.500Z,4.37
2023-05-13T07:00:55.558Z,4.03
2023-05-13T07:03:23.215Z,3.90
2023-05-13T07:05:50.121Z,3.80
2023-05-13T07:08:18.253Z,3.90
2023-05-13T07:10:45.244Z,3.83
2023-05-13T07:13:12.247Z,3.80
2023-05-13T07:15:39.275Z,3.87
2023-05-13T07:18:06.195Z,3.70
2023-05-13T07:20:33.273Z,4.00
2023-05-13T07:23:00.292Z,3.58
2023-05-13T07:25:27.301Z,3.93
2023-05-13T07:27:54.289Z,3.53
2023-05-13T07:30:21.725Z,3.70
2023-05-13T07:32:48.872Z,3.53
2023-05-13T07:35:16.945Z,3.20
2023-05-13T07:37:46.825Z,3.20
2023-05-13T07:40:14.371Z,3.25
2023-05-13T07:42:41.372Z,3.30
2023-05-13T07:45:08.681Z,3.50
2023-05-13T07:47:35.961Z,3.38
2023-05-13T07:50:02.932Z,3.10
2023-05-13T07:52:29.780Z,3.10
2023-05-13T07:54:56.820Z,2.90
2023-05-13T07:57:24.760Z,3.08
2023-05-13T07:59:53.179Z,3.10
2023-05-13T08:02:20.602Z,2.95
2023-05-13T08:04:47.454Z,3.22
2023-05-13T08:07:14.469Z,2.90
2023-05-13T08:09:41.258Z,3.00
2023-05-13T08:12:08.662Z,3.20
2023-05-13T08:14:36.437Z,3.00
2023-05-13T08:17:05.565Z,3.47
2023-05-13T08:19:32.474Z,3.00
2023-05-13T08:21:59.478Z,3.20
2023-05-13T08:24:26.515Z,2.90
2023-05-13T08:26:53.677Z,2.90
2023-05-13T08:29:20.739Z,2.35
2023-05-13T08:31:47.883Z,2.83
2023-05-13T08:34:15.244Z,2.90
2023-05-13T08:36:42.336Z,2.75
2023-05-13T08:39:09.318Z,2.67
2023-05-13T08:41:37.842Z,2.87
2023-05-13T08:44:07.154Z,3.00
2023-05-13T08:46:36.910Z,2.75
2023-05-13T08:49:05.197Z,2.72
2023-05-13T08:51:32.361Z,2.97
2023-05-13T08:54:01.340Z,2.30
2023-05-13T08:56:30.081Z,2.20
2023-05-13T08:58:56.993Z,2.70
2023-05-13T09:01:27.039Z,2.60
2023-05-13T09:04:04.801Z,2.70
2023-05-13T09:06:31.718Z,2.63
2023-05-13T09:08:59.116Z,2.60
2023-05-13T09:11:26.940Z,2.97
2023-05-13T09:13:58.086Z,2.80
2023-05-13T09:16:25.903Z,2.87
2023-05-13T09:19:05.716Z,2.57
2023-05-13T09:21:35.767Z,2.50
2023-05-13T09:24:21.259Z,2.63
2023-05-13T09:26:49.943Z,2.50
2023-05-13T09:29:29.632Z,2.40
2023-05-13T09:32:01.590Z,2.33
2023-05-13T09:34:34.684Z,2.70
2023-05-13T09:37:06.752Z,2.43
2023-05-13T09:39:38.896Z,2.93
2023-05-13T09:42:06.534Z,2.57
2023-05-13T09:44:34.392Z,2.80
2023-05-13T09:47:02.826Z,2.60
2023-05-13T09:49:31.751Z,2.63
2023-05-13T09:51:58.723Z,2.97
2023-05-13T09:54:26.066Z,2.83
2023-05-13T09:56:59.807Z,2.50
2023-05-13T09:59:26.932Z,2.40
2023-05-13T10:01:56.257Z,2.80
2023-05-13T10:04:24.205Z,2.80
2023-05-13T10:06:51.643Z,3.13
2023-05-13T10:09:18.656Z,2.83
2023-05-13T10:11:47.885Z,2.60
2023-05-13T10:14:17.239Z,2.70
2023-05-13T10:16:45.685Z,2.53
2023-05-13T10:19:13.403Z,2.70
2023-05-13T10:21:41.661Z,2.67
2023-05-13T10:24:10.144Z,2.70
2023-05-13T10:26:38.187Z,3.50
2023-05-13T10:29:05.747Z,2.90
2023-05-13T10:31:33.082Z,2.97
2023-05-13T10:34:00.072Z,2.60
2023-05-13T10:36:32.758Z,2.90
2023-05-13T10:38:59.613Z,2.67
2023-05-13T10:41:57.186Z,2.80
2023-05-13T10:44:24.628Z,3.10
2023-05-13T10:46:51.782Z,2.77
2023-05-13T10:49:18.886Z,2.80
2023-05-13T10:51:47.628Z,2.80
2023-05-13T10:54:25.020Z,3.03
2023-05-13T10:56:59.296Z,2.80
2023-05-13T10:59:30.600Z,2.70
2023-05-13T11:01:57.838Z,2.80
2023-05-13T11:04:26.508Z,2.60
2023-05-13T11:06:53.436Z,2.80
2023-05-13T11:09:23.527Z,3.03
2023-05-13T11:11:56.674Z,2.60
2023-05-13T11:14:25.074Z,2.97
2023-05-13T11:17:02.175Z,3.20
2023-05-13T11:19:37.428Z,2.53
2023-05-13T11:22:13.299Z,2.93
2023-05-13T11:24:40.783Z,2.90
2023-05-13T11:27:16.706Z,2.87
2023-05-13T11:29:51.512Z,2.90
2023-05-13T11:32:57.033Z,2.60
2023-05-13T11:35:32.100Z,3.07
2023-05-13T11:38:03.918Z,3.00
2023-05-13T11:40:37.052Z,2.60
2023-05-13T11:43:05.480Z,2.80
2023-05-13T11:45:32.785Z,2.90
2023-05-13T11:48:19.439Z,3.10
2023-05-13T11:50:46.999Z,2.77
2023-05-13T11:53:21.543Z,2.90
2023-05-13T11:55:50.306Z,2.90
2023-05-13T11:58:17.599Z,3.10
2023-05-13T12:00:46.482Z,3.40
2023-05-13T12:03:16.160Z,2.70
2023-05-13T12:05:44.830Z,3.00
2023-05-13T12:08:12.224Z,3.27
2023-05-13T12:10:45.718Z,3.07
2023-05-13T12:13:13.172Z,3.30
2023-05-13T12:15:40.680Z,3.27
2023-05-13T12:18:08.475Z,3.17
2023-05-13T12:20:36.545Z,2.80
2023-05-13T12:23:04.750Z,3.10
2023-05-13T12:25:46.962Z,2.93
2023-05-13T12:28:17.200Z,3.03
2023-05-13T12:31:01.821Z,2.83
2023-05-13T12:33:31.639Z,2.90
2023-05-13T12:36:20.408Z,3.17
2023-05-13T12:39:01.625Z,2.97
2023-05-13T12:41:40.313Z,2.83
2023-05-13T12:44:15.417Z,3.13
2023-05-13T12:46:55.871Z,3.00
2023-05-13T12:49:23.094Z,3.60
2023-05-13T12:51:51.967Z,2.63
2023-05-13T12:54:18.947Z,3.00
2023-05-13T12:56:46.134Z,3.33
2023-05-13T12:59:14.683Z,2.80
2023-05-13T13:01:43.078Z,2.73
2023-05-13T13:04:10.854Z,2.90
2023-05-13T13:06:37.956Z,2.90
2023-05-13T13:09:05.594Z,2.90
2023-05-13T13:11:32.472Z,2.90
2023-05-13T13:13:59.265Z,2.83
2023-05-13T13:16:26.709Z,2.77
2023-05-13T13:18:55.897Z,3.17
2023-05-13T13:21:22.996Z,2.60
2023-05-13T13:23:49.887Z,3.07
2023-05-13T13:26:16.879Z,2.60
2023-05-13T13:28:43.800Z,2.47
2023-05-13T13:31:12.116Z,2.67
2023-05-13T13:33:39.137Z,2.60
2023-05-13T13:36:06.496Z,3.00
2023-05-13T13:38:33.334Z,2.90
2023-05-13T13:41:00.348Z,3.00
2023-05-13T13:43:28.070Z,3.10
2023-05-13T13:45:55.070Z,2.57
2023-05-13T13:48:22.363Z,2.80
2023-05-13T13:50:50.658Z,2.90
2023-05-13T13:53:19.401Z,2.57
2023-05-13T13:55:46.297Z,2.70
2023-05-13T13:58:13.295Z,2.70
2023-05-13T14:00:40.482Z,2.80
2023-05-13T14:03:07.612Z,2.60
2023-05-13T14:05:34.533Z,2.80
2023-05-13T14:08:01.856Z,3.10
2023-05-13T14:10:29.093Z,2.70
2023-05-13T14:12:58.946Z,2.80
2023-05-13T14:15:28.987Z,2.70
2023-05-13T14:17:56.152Z,2.90
2023-05-13T14:20:25.076Z,2.50
2023-05-13T14:22:52.187Z,3.00
2023-05-13T14:25:19.188Z,3.33
2023-05-13T14:27:46.171Z,2.53
2023-05-13T14:30:13.556Z,2.50
2023-05-13T14:32:45.279Z,2.40
2023-05-13T14:35:12.927Z,2.40
2023-05-13T14:37:39.955Z,2.83
2023-05-13T14:40:07.774Z,3.10
2023-05-13T14:42:34.584Z,2.60
2023-05-13T14:45:01.549Z,2.70
2023-05-13T14:47:28.603Z,2.20
2023-05-13T14:49:55.506Z,2.40
2023-05-13T14:52:22.483Z,2.40
2023-05-13T14:54:49.567Z,2.60
2023-05-13T14:57:19.515Z,2.50
2023-05-13T14:59:46.480Z,2.67
2023-05-13T15:02:14.315Z,2.60
2023-05-13T15:04:41.292Z,2.57
2023-05-13T15:07:08.512Z,2.50
2023-05-13T15:09:35.513Z,2.37
2023-05-13T15:12:02.570Z,2.40
2023-05-13T15:14:29.670Z,2.53
2023-05-13T15:16:56.877Z,2.90
2023-05-13T15:19:24.010Z,2.37
2023-05-13T15:21:51.015Z,2.40
2023-05-13T15:24:17.904Z,2.63
2023-05-13T15:26:44.980Z,2.37
2023-05-13T15:29:11.933Z,2.50
2023-05-13T15:31:39.106Z,2.83
2023-05-13T15:34:06.037Z,2.30
2023-05-13T15:36:35.506Z,2.70
2023-05-13T15:39:02.733Z,2.37
2023-05-13T15:41:29.848Z,2.50
2023-05-13T15:43:56.740Z,2.50
2023-05-13T15:46:24.543Z,2.40
2023-05-13T15:48:51.717Z,2.73
2023-05-13T15:51:18.688Z,2.63
2023-05-13T15:53:45.888Z,2.63
2023-05-13T15:56:13.391Z,2.50
2023-05-13T15:58:40.423Z,2.30
2023-05-13T16:01:07.777Z,2.40
2023-05-13T16:03:36.496Z,2.37
2023-05-13T16:06:04.914Z,2.53
2023-05-13T16:08:31.831Z,2.50
2023-05-13T16:10:58.774Z,2.43
2023-05-13T16:13:26.026Z,2.30
2023-05-13T16:15:53.467Z,2.33
2023-05-13T16:18:20.258Z,2.37
2023-05-13T16:20:47.601Z,2.33
2023-05-13T16:23:14.556Z,2.50
2023-05-13T16:25:44.773Z,2.43
2023-05-13T16:28:11.810Z,2.40
2023-05-13T16:30:39.676Z,2.30
2023-05-13T16:33:08.226Z,2.20
2023-05-13T16:35:36.693Z,2.33
2023-05-13T16:38:03.803Z,2.47
2023-05-13T16:40:30.768Z,2.63
2023-05-13T16:43:01.017Z,2.40
2023-05-13T16:45:29.847Z,2.23
2023-05-13T16:47:57.204Z,2.50
2023-05-13T16:50:24.537Z,2.30
2023-05-13T16:52:51.849Z,2.50
2023-05-13T16:55:19.000Z,2.50
2023-05-13T16:57:47.265Z,2.40
2023-05-13T17:00:14.724Z,2.50
2023-05-13T17:02:43.040Z,2.67
2023-05-13T17:05:10.310Z,2.20
2023-05-13T17:07:37.606Z,2.33
2023-05-13T17:10:05.024Z,2.67
2023-05-13T17:12:31.909Z,2.40
2023-05-13T17:14:58.957Z,2.80
2023-05-13T17:17:25.995Z,2.80
2023-05-13T17:19:52.840Z,2.23
2023-05-13T17:22:19.800Z,2.30
2023-05-13T17:24:49.073Z,2.53
2023-05-13T17:27:15.871Z,2.53
2023-05-13T17:29:42.496Z,2.40
2023-05-13T17:32:09.372Z,2.57
2023-05-13T17:34:36.088Z,2.80
2023-05-13T17:37:03.022Z,2.77
2023-05-13T17:39:29.859Z,2.30
2023-05-13T17:41:56.757Z,2.93
2023-05-13T17:44:25.002Z,2.80
2023-05-13T17:46:52.129Z,2.67
2023-05-13T17:49:19.082Z,2.83
2023-05-13T17:51:46.005Z,2.77
2023-05-13T17:54:13.014Z,2.80
2023-05-13T17:56:40.039Z,2.50
2023-05-13T17:59:07.158Z,2.37
2023-05-13T18:01:34.164Z,2.50
2023-05-13T18:04:01.040Z,2.60
2023-05-13T18:06:27.887Z,2.70
2023-05-13T18:08:54.683Z,2.60
2023-05-13T18:11:24.186Z,2.87
2023-05-13T18:13:50.984Z,3.70
2023-05-13T18:16:19.653Z,3.07
2023-05-13T18:18:48.854Z,2.67
2023-05-13T18:21:15.865Z,3.70
2023-05-13T18:23:44.354Z,2.80
2023-05-13T18:26:11.048Z,2.53
2023-05-13T18:28:38.059Z,3.27
2023-05-13T18:31:04.804Z,3.10
2023-05-13T18:33:31.632Z,2.90
2023-05-13T18:35:58.336Z,3.03
2023-05-13T18:38:25.300Z,3.20
2023-05-13T18:40:54.945Z,2.87
2023-05-13T18:43:21.773Z,3.33
2023-05-13T18:45:49.104Z,2.97
2023-05-13T18:48:16.160Z,3.00
2023-05-13T18:50:43.035Z,3.03
2023-05-13T18:53:09.795Z,2.90
2023-05-13T18:55:36.858Z,3.00
2023-05-13T18:58:03.793Z,2.90
2023-05-13T19:00:30.610Z,3.10
2023-05-13T19:02:57.589Z,3.20
2023-05-13T19:05:24.578Z,3.10
2023-05-13T19:07:51.355Z,3.17
2023-05-13T19:10:18.254Z,2.87
2023-05-13T19:12:48.782Z,3.03
2023-05-13T19:15:15.809Z,3.00
2023-05-13T19:17:44.801Z,2.90
2023-05-13T19:20:12.094Z,3.20
2023-05-13T19:22:39.021Z,2.90
2023-05-13T19:25:06.475Z,2.80
2023-05-13T19:27:33.501Z,3.60
2023-05-13T19:30:01.730Z,3.23
2023-05-13T19:32:29.273Z,2.90
2023-05-13T19:34:56.385Z,2.70
2023-05-13T19:37:29.355Z,3.37
2023-05-13T19:39:56.618Z,3.57
2023-05-13T19:42:24.107Z,3.40
2023-05-13T19:44:50.945Z,3.30
2023-05-13T19:47:17.929Z,3.10
2023-05-13T19:49:44.915Z,3.43
2023-05-13T19:52:12.090Z,3.20
2023-05-13T19:54:38.897Z,3.40
2023-05-13T19:57:06.374Z,3.70
2023-05-13T19:59:33.278Z,3.43
2023-05-13T20:02:00.322Z,3.83
2023-05-13T20:04:27.247Z,3.50
2023-05-13T20:06:54.686Z,3.97
2023-05-13T20:09:22.534Z,3.73
2023-05-13T20:11:49.360Z,4.10
2023-05-13T20:14:23.128Z,4.10
2023-05-13T20:16:50.246Z,3.67
2023-05-13T20:19:17.674Z,4.00
2023-05-13T20:21:45.052Z,4.10
2023-05-13T20:24:12.184Z,3.70
2023-05-13T20:26:39.067Z,4.23
2023-05-13T20:29:06.215Z,3.73
2023-05-13T20:31:33.044Z,4.23
2023-05-13T20:34:03.314Z,3.80
2023-05-13T20:36:30.267Z,3.80
2023-05-13T20:38:57.082Z,3.73
2023-05-13T20:41:24.201Z,4.57
2023-05-13T20:43:51.365Z,3.60
2023-05-13T20:46:18.180Z,3.87
2023-05-13T20:48:45.135Z,4.17
2023-05-13T20:51:12.077Z,4.37
2023-05-13T20:53:39.274Z,3.80
2023-05-13T20:56:07.344Z,3.97
2023-05-13T20:58:34.264Z,4.07
2023-05-13T21:01:01.256Z,3.73
2023-05-13T21:03:28.228Z,4.47
2023-05-13T21:05:55.220Z,4.40
2023-05-13T21:08:22.157Z,4.37
2023-05-13T21:10:49.238Z,4.17
2023-05-13T21:13:16.586Z,4.50
2023-05-13T21:15:44.822Z,4.27
2023-05-13T21:18:11.746Z,4.00
2023-05-13T21:20:38.474Z,4.10
2023-05-13T21:23:05.413Z,4.23
2023-05-13T21:25:32.138Z,4.60
2023-05-13T21:27:58.865Z,5.10
2023-05-13T21:30:26.193Z,4.70
2023-05-13T21:32:53.307Z,4.20
2023-05-13T21:35:20.399Z,4.80
2023-05-13T21:37:48.760Z,4.47
2023-05-13T21:40:16.809Z,4.90
2023-05-13T21:42:43.635Z,4.33
2023-05-13T21:45:11.297Z,4.93
2023-05-13T21:47:38.162Z,4.53
2023-05-13T21:50:07.799Z,4.77
2023-05-13T21:52:35.158Z,4.90
2023-05-13T21:55:02.314Z,4.90
2023-05-13T21:57:29.474Z,4.83
2023-05-13T21:59:56.656Z,5.20
2023-05-13T22:02:26.334Z,5.90
2023-05-13T22:04:53.297Z,5.40
2023-05-13T22:07:20.306Z,5.83
2023-05-13T22:09:48.499Z,5.80
2023-05-13T22:12:17.141Z,5.87
2023-05-13T22:14:44.453Z,5.97
2023-05-13T22:17:11.363Z,5.67
2023-05-13T22:19:38.261Z,5.67
2023-05-13T22:22:05.382Z,6.00
2023-05-13T22:24:32.468Z,5.57
2023-05-13T22:27:00.498Z,6.23
2023-05-13T22:29:27.624Z,6.40
2023-05-13T22:31:55.903Z,6.07
2023-05-13T22:34:23.376Z,5.40
2023-05-13T22:36:50.144Z,5.90
2023-05-13T22:39:17.724Z,6.00
2023-05-13T22:41:45.412Z,6.43
2023-05-13T22:44:12.464Z,6.43
2023-05-13T22:46:39.611Z,6.17
2023-05-13T22:49:07.288Z,6.97
2023-05-13T22:51:34.295Z,6.77
2023-05-13T22:54:01.415Z,7.70
2023-05-13T22:56:28.302Z,7.57
2023-05-13T22:58:55.130Z,7.70
2023-05-13T23:01:22.341Z,7.00
2023-05-13T23:03:49.425Z,7.27
2023-05-13T23:06:16.324Z,7.27
2023-05-13T23:08:43.339Z,6.97
2023-05-13T23:11:12.648Z,6.43
2023-05-13T23:13:39.481Z,7.20
2023-05-13T23:16:06.753Z,6.47
2023-05-13T23:18:34.516Z,7.40
2023-05-13T23:21:02.812Z,6.70
2023-05-13T23:23:29.619Z,6.60
2023-05-13T23:25:56.743Z,7.10
2023-05-13T23:28:23.678Z,7.77
2023-05-13T23:30:54.326Z,7.67
2023-05-13T23:33:21.484Z,7.47
2023-05-13T23:35:54.521Z,7.00
2023-05-13T23:38:21.776Z,7.00
2023-05-13T23:40:48.979Z,7.90
2023-05-13T23:43:16.048Z,7.67
2023-05-13T23:45:43.226Z,7.40
2023-05-13T23:48:10.223Z,7.53
2023-05-13T23:50:37.005Z,8.37
2023-05-13T23:53:03.985Z,8.00
2023-05-13T23:55:30.852Z,7.87
2023-05-13T23:57:57.840Z,8.30
